Jimmy Lake, Canada
Current Conditions -  °F | °C
As of 7:00 PM on Saturday 25 Oct 2014 (Local Time) from CWHN Reporting Station
Clear Clear  
Wind Chill:   Ceiling: Unl
Heat Index:   Visibility: 9mi
Dew Point: -2°   Wind: 5mph
Humidity: 70%   Direction: 110°ESE
Pressure: 29.8"   Gusts: NA
Location:  54.9°N, 109.97°W
Report Text: CWHN 260100Z AUTO 11004KT 9SM CLR 03/M02 A2980 RMK SLP120
Loading
Personal Weather Stations






























Interactive Weather Map
Tropical Storm Tracking
New forecast layout! Learn more

10-Day Weather Forecast

Advertisements
Track Severe Weather on mobile